sensor_id;sensor_type;location;lat;lon;timestamp;pressure;altitude;pressure_sealevel;temperature;humidity
76108;BME280;64834;52.516;10.528;2023-12-28T00:00:23;100112.78;;;7.54;80.59
76108;BME280;64834;52.516;10.528;2023-12-28T00:02:49;100098.72;;;7.50;81.01
76108;BME280;64834;52.516;10.528;2023-12-28T00:05:14;100116.13;;;7.51;81.39
76108;BME280;64834;52.516;10.528;2023-12-28T00:07:39;100117.91;;;7.52;81.23
76108;BME280;64834;52.516;10.528;2023-12-28T00:10:05;100120.69;;;7.55;80.88
76108;BME280;64834;52.516;10.528;2023-12-28T00:12:31;100129.41;;;7.56;79.78
76108;BME280;64834;52.516;10.528;2023-12-28T00:14:56;100140.25;;;7.64;80.39
76108;BME280;64834;52.516;10.528;2023-12-28T00:17:21;100133.97;;;7.60;79.88
76108;BME280;64834;52.516;10.528;2023-12-28T00:19:46;100141.97;;;7.63;79.40
76108;BME280;64834;52.516;10.528;2023-12-28T00:22:12;100142.25;;;7.68;79.52
76108;BME280;64834;52.516;10.528;2023-12-28T00:24:37;100134.59;;;7.71;79.82
76108;BME280;64834;52.516;10.528;2023-12-28T00:27:03;100139.09;;;7.73;78.82
76108;BME280;64834;52.516;10.528;2023-12-28T00:29:28;100145.56;;;7.80;78.54
76108;BME280;64834;52.516;10.528;2023-12-28T00:31:57;100141.25;;;7.80;79.05
76108;BME280;64834;52.516;10.528;2023-12-28T00:34:22;100122.91;;;7.79;78.29
76108;BME280;64834;52.516;10.528;2023-12-28T00:36:48;100133.50;;;7.82;78.15
76108;BME280;64834;52.516;10.528;2023-12-28T00:39:13;100129.28;;;7.84;78.12
76108;BME280;64834;52.516;10.528;2023-12-28T00:41:40;100146.16;;;7.91;77.91
76108;BME280;64834;52.516;10.528;2023-12-28T00:44:05;100150.66;;;7.93;77.22
76108;BME280;64834;52.516;10.528;2023-12-28T00:46:34;100159.44;;;7.95;77.13
76108;BME280;64834;52.516;10.528;2023-12-28T00:48:59;100168.44;;;8.00;77.32
76108;BME280;64834;52.516;10.528;2023-12-28T00:51:25;100174.53;;;8.01;77.32
76108;BME280;64834;52.516;10.528;2023-12-28T00:53:50;100179.91;;;8.04;76.58
76108;BME280;64834;52.516;10.528;2023-12-28T00:56:15;100170.56;;;8.07;76.84
76108;BME280;64834;52.516;10.528;2023-12-28T00:58:41;100180.09;;;8.07;76.27
76108;BME280;64834;52.516;10.528;2023-12-28T01:01:09;100184.50;;;8.08;77.02
76108;BME280;64834;52.516;10.528;2023-12-28T01:03:34;100189.72;;;8.08;77.05
76108;BME280;64834;52.516;10.528;2023-12-28T01:06:00;100194.38;;;8.14;75.70
76108;BME280;64834;52.516;10.528;2023-12-28T01:08:25;100200.69;;;8.17;75.41
76108;BME280;64834;52.516;10.528;2023-12-28T01:10:50;100186.63;;;8.15;76.22
76108;BME280;64834;52.516;10.528;2023-12-28T01:13:16;100195.53;;;8.19;76.35
76108;BME280;64834;52.516;10.528;2023-12-28T01:15:41;100196.25;;;8.16;76.81
76108;BME280;64834;52.516;10.528;2023-12-28T01:18:06;100190.13;;;8.16;77.75
76108;BME280;64834;52.516;10.528;2023-12-28T01:20:32;100182.66;;;8.22;77.04
76108;BME280;64834;52.516;10.528;2023-12-28T01:22:57;100188.88;;;8.24;76.96
76108;BME280;64834;52.516;10.528;2023-12-28T01:25:22;100191.72;;;8.28;77.58
76108;BME280;64834;52.516;10.528;2023-12-28T01:27:48;100200.56;;;8.30;78.31
76108;BME280;64834;52.516;10.528;2023-12-28T01:30:13;100216.91;;;8.28;79.10
76108;BME280;64834;52.516;10.528;2023-12-28T01:32:38;100221.13;;;8.26;81.09
76108;BME280;64834;52.516;10.528;2023-12-28T01:35:04;100238.41;;;8.24;80.76
76108;BME280;64834;52.516;10.528;2023-12-28T01:37:29;100231.22;;;8.20;82.71
76108;BME280;64834;52.516;10.528;2023-12-28T01:39:58;100233.81;;;8.20;83.75
76108;BME280;64834;52.516;10.528;2023-12-28T01:42:23;100238.59;;;8.12;85.27
76108;BME280;64834;52.516;10.528;2023-12-28T01:44:49;100239.41;;;8.11;86.57
76108;BME280;64834;52.516;10.528;2023-12-28T01:47:14;100234.00;;;8.08;88.81
76108;BME280;64834;52.516;10.528;2023-12-28T01:49:39;100239.06;;;8.05;89.55
76108;BME280;64834;52.516;10.528;2023-12-28T01:52:06;100216.66;;;8.08;90.11
76108;BME280;64834;52.516;10.528;2023-12-28T01:54:32;100228.06;;;8.10;91.26
76108;BME280;64834;52.516;10.528;2023-12-28T01:56:59;100220.34;;;8.12;91.98
76108;BME280;64834;52.516;10.528;2023-12-28T01:59:25;100220.16;;;8.09;93.19
76108;BME280;64834;52.516;10.528;2023-12-28T02:01:50;100221.94;;;8.10;93.76
76108;BME280;64834;52.516;10.528;2023-12-28T02:04:16;100226.28;;;8.09;94.78
76108;BME280;64834;52.516;10.528;2023-12-28T02:06:41;100223.03;;;8.14;95.53
76108;BME280;64834;52.516;10.528;2023-12-28T02:09:06;100229.34;;;8.17;96.27
76108;BME280;64834;52.516;10.528;2023-12-28T02:11:31;100222.50;;;8.19;96.21
76108;BME280;64834;52.516;10.528;2023-12-28T02:13:57;100222.66;;;8.22;96.25
76108;BME280;64834;52.516;10.528;2023-12-28T02:16:38;100231.72;;;8.29;95.83
76108;BME280;64834;52.516;10.528;2023-12-28T02:19:40;100226.63;;;8.30;96.01
76108;BME280;64834;52.516;10.528;2023-12-28T02:22:07;100230.81;;;8.28;96.22
76108;BME280;64834;52.516;10.528;2023-12-28T02:24:57;100219.69;;;8.31;96.42
76108;BME280;64834;52.516;10.528;2023-12-28T02:27:22;100213.59;;;8.30;96.81
76108;BME280;64834;52.516;10.528;2023-12-28T02:29:47;100219.78;;;8.32;96.64
76108;BME280;64834;52.516;10.528;2023-12-28T02:32:13;100213.81;;;8.35;96.99
76108;BME280;64834;52.516;10.528;2023-12-28T02:34:42;100232.22;;;8.36;96.74
76108;BME280;64834;52.516;10.528;2023-12-28T02:37:12;100219.25;;;8.38;96.26
76108;BME280;64834;52.516;10.528;2023-12-28T02:39:41;100221.88;;;8.38;96.15
76108;BME280;64834;52.516;10.528;2023-12-28T02:42:07;100233.19;;;8.38;95.92
76108;BME280;64834;52.516;10.528;2023-12-28T02:44:32;100235.59;;;8.35;96.33
76108;BME280;64834;52.516;10.528;2023-12-28T02:46:58;100242.88;;;8.41;95.91
76108;BME280;64834;52.516;10.528;2023-12-28T02:49:23;100242.06;;;8.42;96.12
76108;BME280;64834;52.516;10.528;2023-12-28T02:51:48;100253.44;;;8.43;95.98
76108;BME280;64834;52.516;10.528;2023-12-28T02:54:14;100259.41;;;8.42;95.70
76108;BME280;64834;52.516;10.528;2023-12-28T02:56:40;100253.44;;;8.43;95.53
76108;BME280;64834;52.516;10.528;2023-12-28T02:59:06;100263.59;;;8.38;95.42
76108;BME280;64834;52.516;10.528;2023-12-28T03:01:31;100262.69;;;8.37;95.22
76108;BME280;64834;52.516;10.528;2023-12-28T03:03:56;100256.47;;;8.35;95.28
76108;BME280;64834;52.516;10.528;2023-12-28T03:06:21;100260.91;;;8.36;95.44
76108;BME280;64834;52.516;10.528;2023-12-28T03:08:47;100256.56;;;8.37;95.34
76108;BME280;64834;52.516;10.528;2023-12-28T03:11:12;100261.78;;;8.37;95.62
76108;BME280;64834;52.516;10.528;2023-12-28T03:13:38;100252.78;;;8.32;96.16
76108;BME280;64834;52.516;10.528;2023-12-28T03:16:03;100253.66;;;8.32;96.41
76108;BME280;64834;52.516;10.528;2023-12-28T03:18:29;100263.19;;;8.32;96.80
76108;BME280;64834;52.516;10.528;2023-12-28T03:20:54;100273.69;;;8.33;97.25
76108;BME280;64834;52.516;10.528;2023-12-28T03:23:20;100271.19;;;8.35;97.32
76108;BME280;64834;52.516;10.528;2023-12-28T03:25:45;100272.28;;;8.38;97.63
76108;BME280;64834;52.516;10.528;2023-12-28T03:28:10;100266.78;;;8.34;97.82
76108;BME280;64834;52.516;10.528;2023-12-28T03:30:35;100264.00;;;8.31;98.11
76108;BME280;64834;52.516;10.528;2023-12-28T03:33:01;100261.41;;;8.31;98.26
76108;BME280;64834;52.516;10.528;2023-12-28T03:35:26;100256.00;;;8.28;98.49
76108;BME280;64834;52.516;10.528;2023-12-28T03:37:51;100251.53;;;8.25;99.47
76108;BME280;64834;52.516;10.528;2023-12-28T03:40:17;100250.09;;;8.30;99.42
76108;BME280;64834;52.516;10.528;2023-12-28T03:42:42;100241.25;;;8.28;100.00
76108;BME280;64834;52.516;10.528;2023-12-28T03:45:09;100244.88;;;8.30;99.86
76108;BME280;64834;52.516;10.528;2023-12-28T03:47:34;100257.78;;;8.29;100.00
76108;BME280;64834;52.516;10.528;2023-12-28T03:50:00;100241.44;;;8.31;100.00
76108;BME280;64834;52.516;10.528;2023-12-28T03:52:28;100243.22;;;8.32;100.00
76108;BME280;64834;52.516;10.528;2023-12-28T03:54:57;100247.38;;;8.29;100.00
76108;BME280;64834;52.516;10.528;2023-12-28T03:57:22;100250.97;;;8.31;100.00
76108;BME280;64834;52.516;10.528;2023-12-28T03:59:47;100252.78;;;8.32;100.00
76108;BME280;64834;52.516;10.528;2023-12-28T04:02:13;100258.28;;;8.36;100.00
76108;BME280;64834;52.516;10.528;2023-12-28T04:04:38;100259.19;;;8.37;100.00
76108;BME280;64834;52.516;10.528;2023-12-28T04:07:04;100257.25;;;8.34;100.00
76108;BME280;64834;52.516;10.528;2023-12-28T04:09:32;100261.06;;;8.40;100.00
76108;BME280;64834;52.516;10.528;2023-12-28T04:11:57;100262.84;;;8.41;100.00
76108;BME280;64834;52.516;10.528;2023-12-28T04:14:23;100260.31;;;8.42;100.00
76108;BME280;64834;52.516;10.528;2023-12-28T04:16:48;100267.44;;;8.45;100.00
76108;BME280;64834;52.516;10.528;2023-12-28T04:19:13;100263.75;;;8.41;100.00
76108;BME280;64834;52.516;10.528;2023-12-28T04:21:42;100258.38;;;8.38;100.00
76108;BME280;64834;52.516;10.528;2023-12-28T04:24:08;100263.75;;;8.41;100.00
76108;BME280;64834;52.516;10.528;2023-12-28T04:26:33;100264.47;;;8.38;100.00
76108;BME280;64834;52.516;10.528;2023-12-28T04:28:59;100270.44;;;8.36;100.00
76108;BME280;64834;52.516;10.528;2023-12-28T04:31:24;100274.38;;;8.44;100.00
76108;BME280;64834;52.516;10.528;2023-12-28T04:33:49;100269.31;;;8.47;100.00
76108;BME280;64834;52.516;10.528;2023-12-28T04:36:15;100271.75;;;8.44;100.00
76108;BME280;64834;52.516;10.528;2023-12-28T04:38:40;100274.53;;;8.47;100.00
76108;BME280;64834;52.516;10.528;2023-12-28T04:41:06;100281.44;;;8.47;100.00
76108;BME280;64834;52.516;10.528;2023-12-28T04:43:31;100277.03;;;8.46;100.00
76108;BME280;64834;52.516;10.528;2023-12-28T04:45:57;100269.31;;;8.47;100.00
76108;BME280;64834;52.516;10.528;2023-12-28T04:48:22;100270.03;;;8.45;100.00
76108;BME280;64834;52.516;10.528;2023-12-28T04:50:50;100265.44;;;8.41;100.00
76108;BME280;64834;52.516;10.528;2023-12-28T04:53:16;100268.13;;;8.42;100.00
76108;BME280;64834;52.516;10.528;2023-12-28T04:55:41;100260.91;;;8.36;100.00
76108;BME280;64834;52.516;10.528;2023-12-28T04:58:07;100275.81;;;8.39;100.00
76108;BME280;64834;52.516;10.528;2023-12-28T05:00:32;100271.09;;;8.33;100.00
76108;BME280;64834;52.516;10.528;2023-12-28T05:02:57;100269.50;;;8.35;100.00
76108;BME280;64834;52.516;10.528;2023-12-28T05:05:22;100266.47;;;8.43;100.00
76108;BME280;64834;52.516;10.528;2023-12-28T05:07:48;100269.84;;;8.42;99.63
76108;BME280;64834;52.516;10.528;2023-12-28T05:10:13;100267.97;;;8.39;100.00
76108;BME280;64834;52.516;10.528;2023-12-28T05:12:39;100274.00;;;8.38;100.00
76108;BME280;64834;52.516;10.528;2023-12-28T05:15:04;100278.31;;;8.37;100.00
76108;BME280;64834;52.516;10.528;2023-12-28T05:17:30;100280.13;;;8.38;100.00
76108;BME280;64834;52.516;10.528;2023-12-28T05:19:55;100277.50;;;8.38;100.00
76108;BME280;64834;52.516;10.528;2023-12-28T05:22:21;100276.63;;;8.38;100.00
76108;BME280;64834;52.516;10.528;2023-12-28T05:24:46;100281.00;;;8.39;99.93
76108;BME280;64834;52.516;10.528;2023-12-28T05:27:12;100273.13;;;8.37;100.00
76108;BME280;64834;52.516;10.528;2023-12-28T05:29:37;100280.72;;;8.34;100.00
76108;BME280;64834;52.516;10.528;2023-12-28T05:32:02;100276.63;;;8.38;99.81
76108;BME280;64834;52.516;10.528;2023-12-28T05:34:28;100283.69;;;8.41;99.61
76108;BME280;64834;52.516;10.528;2023-12-28T05:36:53;100291.44;;;8.39;99.62
76108;BME280;64834;52.516;10.528;2023-12-28T05:39:19;100280.13;;;8.38;99.46
76108;BME280;64834;52.516;10.528;2023-12-28T05:41:44;100279.50;;;8.43;99.28
76108;BME280;64834;52.516;10.528;2023-12-28T05:44:12;100285.34;;;8.38;99.54
76108;BME280;64834;52.516;10.528;2023-12-28T05:46:38;100279.31;;;8.40;99.24
76108;BME280;64834;52.516;10.528;2023-12-28T05:49:03;100281.75;;;8.36;99.37
76108;BME280;64834;52.516;10.528;2023-12-28T05:51:28;100282.72;;;8.38;99.46
76108;BME280;64834;52.516;10.528;2023-12-28T05:53:53;100287.22;;;8.41;99.04
76108;BME280;64834;52.516;10.528;2023-12-28T05:56:19;100282.88;;;8.42;99.01
76108;BME280;64834;52.516;10.528;2023-12-28T05:58:44;100287.13;;;8.40;98.71
76108;BME280;64834;52.516;10.528;2023-12-28T06:01:09;100286.22;;;8.39;98.47
76108;BME280;64834;52.516;10.528;2023-12-28T06:03:35;100280.13;;;8.38;98.66
76108;BME280;64834;52.516;10.528;2023-12-28T06:06:00;100279.94;;;8.35;98.42
76108;BME280;64834;52.516;10.528;2023-12-28T06:08:25;100280.53;;;8.31;98.65
76108;BME280;64834;52.516;10.528;2023-12-28T06:10:51;100289.25;;;8.32;98.36
76108;BME280;64834;52.516;10.528;2023-12-28T06:13:16;100279.00;;;8.35;98.25
76108;BME280;64834;52.516;10.528;2023-12-28T06:15:41;100283.53;;;8.37;97.78
76108;BME280;64834;52.516;10.528;2023-12-28T06:18:06;100288.75;;;8.37;97.75
76108;BME280;64834;52.516;10.528;2023-12-28T06:20:32;100286.56;;;8.30;97.99
76108;BME280;64834;52.516;10.528;2023-12-28T06:22:57;100294.63;;;8.35;97.72
76108;BME280;64834;52.516;10.528;2023-12-28T06:25:23;100294.88;;;8.38;97.61
76108;BME280;64834;52.516;10.528;2023-12-28T06:27:48;100299.53;;;8.44;97.31
76108;BME280;64834;52.516;10.528;2023-12-28T06:30:13;100306.47;;;8.43;97.34
76108;BME280;64834;52.516;10.528;2023-12-28T06:32:39;100303.66;;;8.40;97.64
76108;BME280;64834;52.516;10.528;2023-12-28T06:35:05;100319.31;;;8.40;97.82
76108;BME280;64834;52.516;10.528;2023-12-28T06:37:30;100315.25;;;8.45;97.46
76108;BME280;64834;52.516;10.528;2023-12-28T06:39:55;100309.16;;;8.45;97.15
76108;BME280;64834;52.516;10.528;2023-12-28T06:42:21;100310.22;;;8.48;97.16
76108;BME280;64834;52.516;10.528;2023-12-28T06:44:46;100316.16;;;8.46;97.16
76108;BME280;64834;52.516;10.528;2023-12-28T06:47:11;100316.25;;;8.47;97.41
76108;BME280;64834;52.516;10.528;2023-12-28T06:49:37;100318.84;;;8.47;97.01
76108;BME280;64834;52.516;10.528;2023-12-28T06:52:02;100313.56;;;8.46;96.79
76108;BME280;64834;52.516;10.528;2023-12-28T06:54:27;100313.28;;;8.41;97.08
76108;BME280;64834;52.516;10.528;2023-12-28T06:56:53;100305.28;;;8.38;97.05
76108;BME280;64834;52.516;10.528;2023-12-28T06:59:18;100314.81;;;8.37;97.05
76108;BME280;64834;52.516;10.528;2023-12-28T07:01:43;100307.91;;;8.38;97.06
76108;BME280;64834;52.516;10.528;2023-12-28T07:04:13;100314.81;;;8.37;96.51
76108;BME280;64834;52.516;10.528;2023-12-28T07:06:38;100326.16;;;8.38;96.66
76108;BME280;64834;52.516;10.528;2023-12-28T07:09:03;100315.00;;;8.41;96.44
76108;BME280;64834;52.516;10.528;2023-12-28T07:11:29;100326.31;;;8.41;96.23
76108;BME280;64834;52.516;10.528;2023-12-28T07:13:55;100323.97;;;8.46;95.89
76108;BME280;64834;52.516;10.528;2023-12-28T07:16:20;100330.91;;;8.45;95.48
76108;BME280;64834;52.516;10.528;2023-12-28T07:18:45;100330.28;;;8.49;95.42
76108;BME280;64834;52.516;10.528;2023-12-28T07:21:11;100322.53;;;8.51;94.98
76108;BME280;64834;52.516;10.528;2023-12-28T07:23:37;100331.34;;;8.53;94.75
76108;BME280;64834;52.516;10.528;2023-12-28T07:26:02;100333.94;;;8.53;94.69
76108;BME280;64834;52.516;10.528;2023-12-28T07:28:28;100336.47;;;8.51;94.37
76108;BME280;64834;52.516;10.528;2023-12-28T07:30:54;100350.59;;;8.55;94.01
76108;BME280;64834;52.516;10.528;2023-12-28T07:33:19;100351.75;;;8.60;93.96
76108;BME280;64834;52.516;10.528;2023-12-28T07:35:45;100348.44;;;8.62;93.57
76108;BME280;64834;52.516;10.528;2023-12-28T07:38:10;100357.66;;;8.72;93.22
76108;BME280;64834;52.516;10.528;2023-12-28T07:40:36;100355.06;;;8.72;93.11
76108;BME280;64834;52.516;10.528;2023-12-28T07:43:01;100369.19;;;8.76;93.05
76108;BME280;64834;52.516;10.528;2023-12-28T07:45:26;100361.72;;;8.82;92.66
76108;BME280;64834;52.516;10.528;2023-12-28T07:47:52;100358.44;;;8.86;92.36
76108;BME280;64834;52.516;10.528;2023-12-28T07:50:17;100361.78;;;8.83;92.57
76108;BME280;64834;52.516;10.528;2023-12-28T07:52:44;100361.06;;;8.86;91.89
76108;BME280;64834;52.516;10.528;2023-12-28T07:55:10;100349.28;;;8.93;91.60
76108;BME280;64834;52.516;10.528;2023-12-28T07:57:35;100356.19;;;8.92;91.98
76108;BME280;64834;52.516;10.528;2023-12-28T08:00:02;100357.13;;;8.93;91.87
76108;BME280;64834;52.516;10.528;2023-12-28T08:02:28;100362.22;;;8.91;92.10
76108;BME280;64834;52.516;10.528;2023-12-28T08:04:54;100360.69;;;8.95;91.23
76108;BME280;64834;52.516;10.528;2023-12-28T08:07:19;100367.72;;;8.96;91.21
76108;BME280;64834;52.516;10.528;2023-12-28T08:09:45;100358.25;;;8.98;91.29
76108;BME280;64834;52.516;10.528;2023-12-28T08:12:10;100363.47;;;8.98;91.55
76108;BME280;64834;52.516;10.528;2023-12-28T08:14:35;100359.88;;;8.96;91.42
76108;BME280;64834;52.516;10.528;2023-12-28T08:17:01;100352.88;;;8.95;91.58
76108;BME280;64834;52.516;10.528;2023-12-28T08:19:26;100352.06;;;8.96;91.21
76108;BME280;64834;52.516;10.528;2023-12-28T08:21:51;100358.00;;;8.93;91.75
76108;BME280;64834;52.516;10.528;2023-12-28T08:24:16;100353.56;;;8.92;91.38
76108;BME280;64834;52.516;10.528;2023-12-28T08:26:42;100357.91;;;8.91;91.25
76108;BME280;64834;52.516;10.528;2023-12-28T08:29:07;100356.03;;;8.89;91.42
76108;BME280;64834;52.516;10.528;2023-12-28T08:31:32;100362.22;;;8.91;91.42
76108;BME280;64834;52.516;10.528;2023-12-28T08:33:58;100369.16;;;8.90;91.84
76108;BME280;64834;52.516;10.528;2023-12-28T08:36:23;100367.56;;;8.93;91.40
76108;BME280;64834;52.516;10.528;2023-12-28T08:38:48;100371.97;;;8.94;91.12
76108;BME280;64834;52.516;10.528;2023-12-28T08:41:21;100363.22;;;8.93;90.72
76108;BME280;64834;52.516;10.528;2023-12-28T08:43:48;100371.22;;;8.96;90.42
76108;BME280;64834;52.516;10.528;2023-12-28T08:46:14;100375.81;;;9.00;89.86
76108;BME280;64834;52.516;10.528;2023-12-28T08:48:42;100367.25;;;9.03;89.36
76108;BME280;64834;52.516;10.528;2023-12-28T08:51:09;100373.44;;;9.05;89.27
76108;BME280;64834;52.516;10.528;2023-12-28T08:53:35;100378.84;;;9.08;89.31
76108;BME280;64834;52.516;10.528;2023-12-28T08:56:01;100385.94;;;9.10;88.75
76108;BME280;64834;52.516;10.528;2023-12-28T08:58:26;100385.94;;;9.10;89.06
76108;BME280;64834;52.516;10.528;2023-12-28T09:00:51;100373.88;;;9.12;88.58
76108;BME280;64834;52.516;10.528;2023-12-28T09:03:17;100387.19;;;9.17;88.24
76108;BME280;64834;52.516;10.528;2023-12-28T09:05:42;100391.63;;;9.18;87.41
76108;BME280;64834;52.516;10.528;2023-12-28T09:08:08;100392.75;;;9.23;87.68
76108;BME280;64834;52.516;10.528;2023-12-28T09:10:33;100384.19;;;9.26;87.32
76108;BME280;64834;52.516;10.528;2023-12-28T09:12:58;100393.00;;;9.28;86.82
76108;BME280;64834;52.516;10.528;2023-12-28T09:15:23;100394.25;;;9.34;86.90
76108;BME280;64834;52.516;10.528;2023-12-28T09:17:49;100394.44;;;9.37;86.44
76108;BME280;64834;52.516;10.528;2023-12-28T09:20:15;100394.44;;;9.37;85.59
76108;BME280;64834;52.516;10.528;2023-12-28T09:22:41;100395.56;;;9.42;85.98
76108;BME280;64834;52.516;10.528;2023-12-28T09:25:06;100388.88;;;9.48;85.04
76108;BME280;64834;52.516;10.528;2023-12-28T09:27:32;100383.03;;;9.52;84.57
76108;BME280;64834;52.516;10.528;2023-12-28T09:29:57;100396.22;;;9.55;84.64
76108;BME280;64834;52.516;10.528;2023-12-28T09:32:22;100385.22;;;9.60;84.33
76108;BME280;64834;52.516;10.528;2023-12-28T09:34:48;100379.28;;;9.63;84.25
76108;BME280;64834;52.516;10.528;2023-12-28T09:37:13;100383.06;;;9.68;83.72
76108;BME280;64834;52.516;10.528;2023-12-28T09:39:38;100381.22;;;9.67;83.75
76108;BME280;64834;52.516;10.528;2023-12-28T09:42:16;100383.19;;;9.71;83.32
76108;BME280;64834;52.516;10.528;2023-12-28T09:44:43;100382.69;;;9.78;82.76
76108;BME280;64834;52.516;10.528;2023-12-28T09:47:09;100385.50;;;9.81;82.80
76108;BME280;64834;52.516;10.528;2023-12-28T09:49:37;100383.22;;;9.87;83.09
76108;BME280;64834;52.516;10.528;2023-12-28T09:52:04;100391.19;;;9.90;81.56
76108;BME280;64834;52.516;10.528;2023-12-28T09:54:29;100390.88;;;10.00;81.68
76108;BME280;64834;52.516;10.528;2023-12-28T09:56:55;100378.84;;;10.04;81.38
76108;BME280;64834;52.516;10.528;2023-12-28T09:59:22;100384.00;;;10.19;81.51
76108;BME280;64834;52.516;10.528;2023-12-28T10:01:48;100378.78;;;10.19;80.27
76108;BME280;64834;52.516;10.528;2023-12-28T10:04:15;100385.88;;;10.21;80.52
76108;BME280;64834;52.516;10.528;2023-12-28T10:06:40;100376.16;;;10.19;79.92
76108;BME280;64834;52.516;10.528;2023-12-28T10:09:06;100373.69;;;10.22;79.72
76108;BME280;64834;52.516;10.528;2023-12-28T10:11:32;100374.50;;;10.21;79.89
76108;BME280;64834;52.516;10.528;2023-12-28T10:13:58;100385.88;;;10.21;80.64
76108;BME280;64834;52.516;10.528;2023-12-28T10:16:23;100380.19;;;10.12;80.17
76108;BME280;64834;52.516;10.528;2023-12-28T10:18:49;100384.00;;;10.19;81.19
76108;BME280;64834;52.516;10.528;2023-12-28T10:21:14;100384.66;;;10.15;81.19
76108;BME280;64834;52.516;10.528;2023-12-28T10:23:40;100373.22;;;10.13;81.08
76108;BME280;64834;52.516;10.528;2023-12-28T10:26:05;100377.78;;;10.17;80.97
76108;BME280;64834;52.516;10.528;2023-12-28T10:28:34;100358.66;;;10.18;79.92
76108;BME280;64834;52.516;10.528;2023-12-28T10:31:00;100354.50;;;10.21;80.04
76108;BME280;64834;52.516;10.528;2023-12-28T10:33:26;100349.19;;;10.20;80.18
76108;BME280;64834;52.516;10.528;2023-12-28T10:35:51;100349.19;;;10.20;79.63
76108;BME280;64834;52.516;10.528;2023-12-28T10:38:17;100334.66;;;10.25;80.44
76108;BME280;64834;52.516;10.528;2023-12-28T10:40:44;100334.75;;;10.26;79.36
76108;BME280;64834;52.516;10.528;2023-12-28T10:43:11;100326.97;;;10.28;79.35
76108;BME280;64834;52.516;10.528;2023-12-28T10:45:39;100332.19;;;10.28;79.72
76108;BME280;64834;52.516;10.528;2023-12-28T10:48:06;100336.91;;;10.35;78.77
76108;BME280;64834;52.516;10.528;2023-12-28T10:53:15;100335.16;;;10.52;79.29
76108;BME280;64834;52.516;10.528;2023-12-28T10:56:17;100344.28;;;10.60;78.75
76108;BME280;64834;52.516;10.528;2023-12-28T11:01:41;100339.41;;;10.68;77.63
76108;BME280;64834;52.516;10.528;2023-12-28T11:04:11;100342.31;;;10.74;77.42
76108;BME280;64834;52.516;10.528;2023-12-28T11:06:42;100338.09;;;10.76;77.05
76108;BME280;64834;52.516;10.528;2023-12-28T11:09:08;100348.16;;;10.68;77.59
76108;BME280;64834;52.516;10.528;2023-12-28T11:11:35;100341.72;;;10.62;77.25
76108;BME280;64834;52.516;10.528;2023-12-28T11:14:01;100356.31;;;10.57;77.71
76108;BME280;64834;52.516;10.528;2023-12-28T11:16:28;100353.84;;;10.60;77.37
76108;BME280;64834;52.516;10.528;2023-12-28T11:18:55;100355.63;;;10.61;77.41
76108;BME280;64834;52.516;10.528;2023-12-28T11:21:22;100362.75;;;10.63;77.77
76108;BME280;64834;52.516;10.528;2023-12-28T11:23:48;100348.16;;;10.68;78.35
76108;BME280;64834;52.516;10.528;2023-12-28T11:26:21;100358.63;;;10.68;77.74
76108;BME280;64834;52.516;10.528;2023-12-28T11:28:46;100354.97;;;10.65;77.93
76108;BME280;64834;52.516;10.528;2023-12-28T11:31:15;100358.41;;;10.64;77.44
76108;BME280;64834;52.516;10.528;2023-12-28T11:33:45;100346.28;;;10.66;77.02
76108;BME280;64834;52.516;10.528;2023-12-28T11:36:11;100359.69;;;10.72;77.29
76108;BME280;64834;52.516;10.528;2023-12-28T11:38:38;100344.81;;;10.71;76.83
76108;BME280;64834;52.516;10.528;2023-12-28T11:41:04;100358.84;;;10.73;77.29
76108;BME280;64834;52.516;10.528;2023-12-28T11:43:34;100347.50;;;10.72;76.82
76108;BME280;64834;52.516;10.528;2023-12-28T11:46:00;100351.84;;;10.72;76.63
76108;BME280;64834;52.516;10.528;2023-12-28T11:48:27;100347.50;;;10.72;77.92
76108;BME280;64834;52.516;10.528;2023-12-28T11:50:58;100344.03;;;10.73;77.07
76108;BME280;64834;52.516;10.528;2023-12-28T11:53:25;100333.59;;;10.73;77.46
76108;BME280;64834;52.516;10.528;2023-12-28T11:55:50;100334.47;;;10.74;76.52
76108;BME280;64834;52.516;10.528;2023-12-28T11:58:17;100338.69;;;10.70;77.38
76108;BME280;64834;52.516;10.528;2023-12-28T12:00:43;100333.44;;;10.70;76.92
76108;BME280;64834;52.516;10.528;2023-12-28T12:03:12;100327.31;;;10.70;76.83
76108;BME280;64834;52.516;10.528;2023-12-28T12:05:37;100323.03;;;10.72;77.01
76108;BME280;64834;52.516;10.528;2023-12-28T12:08:06;100325.81;;;10.75;77.11
76108;BME280;64834;52.516;10.528;2023-12-28T12:10:34;100333.75;;;10.76;77.59
76108;BME280;64834;52.516;10.528;2023-12-28T12:13:00;100325.31;;;10.82;78.01
76108;BME280;64834;52.516;10.528;2023-12-28T12:15:27;100324.16;;;10.77;76.13
76108;BME280;64834;52.516;10.528;2023-12-28T12:17:54;100316.63;;;10.83;76.98
76108;BME280;64834;52.516;10.528;2023-12-28T12:20:19;100318.19;;;10.79;76.31
76108;BME280;64834;52.516;10.528;2023-12-28T12:22:45;100303.53;;;10.83;77.14
76108;BME280;64834;52.516;10.528;2023-12-28T12:25:10;100319.25;;;10.83;76.78
76108;BME280;64834;52.516;10.528;2023-12-28T12:27:36;100316.75;;;10.86;76.37
76108;BME280;64834;52.516;10.528;2023-12-28T12:30:04;100308.22;;;10.90;76.02
76108;BME280;64834;52.516;10.528;2023-12-28T12:32:29;100301.28;;;10.91;75.50
76108;BME280;64834;52.516;10.528;2023-12-28T12:34:55;100301.03;;;11.04;76.55
76108;BME280;64834;52.516;10.528;2023-12-28T12:37:20;100294.91;;;11.03;75.73
76108;BME280;64834;52.516;10.528;2023-12-28T12:39:46;100306.31;;;11.05;74.50
76108;BME280;64834;52.516;10.528;2023-12-28T12:42:14;100305.38;;;11.03;75.06
76108;BME280;64834;52.516;10.528;2023-12-28T12:44:39;100299.31;;;11.04;74.13